Terminal Aerodrome Forecast
Issued by NWS

Home | Current Version | Previous Version | Text Only | Print | Product List | Glossary On
Versions: 1 2 3 4 5 6 7 8 9 10 11 12 13 14
627
FTUS42 KGSP 051137
TAFAND
TAF
KAND 051137Z 0512/0612 29006KT P6SM FEW250
     FM051400 29011G18KT P6SM FEW200
     FM051800 28015G26KT P6SM VCSH BKN070
     FM052000 28016G29KT P6SM VCSH SCT070
      TEMPO 0521/0601 4SM -SHRA BKN070
     FM060200 31007KT P6SM SCT070=

USA.gov is the U.S. government's official web portal to all federal, state and local government web resources and services.